Terminal Aerodrome Forecast
Issued by NWS Upton, NY

Home | Current Version | Previous Version | Text Only | Print | Product List | Glossary On
Versions: 1 2 3 4 5 6 7 8 9 10 11 12 13 14 15 16 17 18 19 20 21 22 23 24 25 26 27 28
000
FTUS41 KOKX 290545
TAFISP
TAF
KISP 290545Z 2906/3006 VRB03KT 6SM HZ FEW250
     FM291500 21008KT P6SM FEW050 SCT250
     FM291800 21011KT P6SM FEW050 SCT250
     FM300100 22008KT P6SM FEW050 SCT250=

USA.gov is the U.S. government's official web portal to all federal, state and local government web resources and services.